sensor_id;sensor_type;location;lat;lon;timestamp;P1;durP1;ratioP1;P2;durP2;ratioP2
12474;SDS011;6302;42.624;23.334;2023-08-31T00:02:01;3.23;;;2.50;;
12474;SDS011;6302;42.624;23.334;2023-08-31T00:04:28;4.07;;;2.10;;
12474;SDS011;6302;42.624;23.334;2023-08-31T00:06:55;4.30;;;2.60;;
12474;SDS011;6302;42.624;23.334;2023-08-31T00:09:22;4.93;;;2.20;;
12474;SDS011;6302;42.624;23.334;2023-08-31T00:11:50;3.93;;;2.10;;
12474;SDS011;6302;42.624;23.334;2023-08-31T00:14:17;3.57;;;2.43;;
12474;SDS011;6302;42.624;23.334;2023-08-31T00:16:44;3.10;;;2.03;;
12474;SDS011;6302;42.624;23.334;2023-08-31T00:19:11;3.20;;;1.80;;
12474;SDS011;6302;42.624;23.334;2023-08-31T00:21:39;2.90;;;2.23;;
12474;SDS011;6302;42.624;23.334;2023-08-31T00:24:06;5.37;;;2.30;;
12474;SDS011;6302;42.624;23.334;2023-08-31T00:26:37;3.30;;;2.37;;
12474;SDS011;6302;42.624;23.334;2023-08-31T00:29:07;6.20;;;2.23;;
12474;SDS011;6302;42.624;23.334;2023-08-31T00:31:36;5.07;;;2.00;;
12474;SDS011;6302;42.624;23.334;2023-08-31T00:34:02;6.73;;;2.50;;
12474;SDS011;6302;42.624;23.334;2023-08-31T00:36:30;3.17;;;2.17;;
12474;SDS011;6302;42.624;23.334;2023-08-31T00:38:57;4.13;;;1.97;;
12474;SDS011;6302;42.624;23.334;2023-08-31T00:41:24;5.10;;;2.73;;
12474;SDS011;6302;42.624;23.334;2023-08-31T00:43:50;3.93;;;2.43;;
12474;SDS011;6302;42.624;23.334;2023-08-31T00:46:19;3.97;;;2.07;;
12474;SDS011;6302;42.624;23.334;2023-08-31T00:48:45;3.77;;;2.20;;
12474;SDS011;6302;42.624;23.334;2023-08-31T00:51:12;3.83;;;2.20;;
12474;SDS011;6302;42.624;23.334;2023-08-31T00:53:39;3.87;;;2.20;;
12474;SDS011;6302;42.624;23.334;2023-08-31T00:56:07;5.07;;;2.30;;
12474;SDS011;6302;42.624;23.334;2023-08-31T00:58:34;2.87;;;1.97;;
12474;SDS011;6302;42.624;23.334;2023-08-31T01:01:02;4.03;;;2.30;;
12474;SDS011;6302;42.624;23.334;2023-08-31T01:03:43;3.37;;;2.13;;
12474;SDS011;6302;42.624;23.334;2023-08-31T01:06:18;5.50;;;1.93;;
12474;SDS011;6302;42.624;23.334;2023-08-31T01:08:57;5.67;;;2.40;;
12474;SDS011;6302;42.624;23.334;2023-08-31T01:11:41;2.70;;;2.07;;
12474;SDS011;6302;42.624;23.334;2023-08-31T01:14:19;6.60;;;2.30;;
12474;SDS011;6302;42.624;23.334;2023-08-31T01:16:51;3.80;;;1.73;;
12474;SDS011;6302;42.624;23.334;2023-08-31T01:19:24;4.20;;;1.97;;
12474;SDS011;6302;42.624;23.334;2023-08-31T01:22:03;4.60;;;2.27;;
12474;SDS011;6302;42.624;23.334;2023-08-31T01:24:35;3.90;;;2.13;;
12474;SDS011;6302;42.624;23.334;2023-08-31T01:27:03;6.90;;;2.07;;
12474;SDS011;6302;42.624;23.334;2023-08-31T01:29:31;6.10;;;2.23;;
12474;SDS011;6302;42.624;23.334;2023-08-31T01:31:58;5.20;;;2.43;;
12474;SDS011;6302;42.624;23.334;2023-08-31T01:34:34;3.30;;;2.07;;
12474;SDS011;6302;42.624;23.334;2023-08-31T01:37:03;4.70;;;1.97;;
12474;SDS011;6302;42.624;23.334;2023-08-31T01:39:39;2.63;;;1.70;;
12474;SDS011;6302;42.624;23.334;2023-08-31T01:42:11;4.67;;;2.50;;
12474;SDS011;6302;42.624;23.334;2023-08-31T01:44:39;2.57;;;1.90;;
12474;SDS011;6302;42.624;23.334;2023-08-31T01:47:09;4.50;;;2.20;;
12474;SDS011;6302;42.624;23.334;2023-08-31T01:49:37;4.83;;;2.03;;
12474;SDS011;6302;42.624;23.334;2023-08-31T01:52:04;4.03;;;2.63;;
12474;SDS011;6302;42.624;23.334;2023-08-31T01:54:32;3.77;;;2.27;;
12474;SDS011;6302;42.624;23.334;2023-08-31T01:57:04;2.50;;;1.93;;
12474;SDS011;6302;42.624;23.334;2023-08-31T01:59:31;4.13;;;2.20;;
12474;SDS011;6302;42.624;23.334;2023-08-31T02:01:58;4.40;;;2.10;;
12474;SDS011;6302;42.624;23.334;2023-08-31T02:04:24;6.10;;;2.53;;
12474;SDS011;6302;42.624;23.334;2023-08-31T02:06:51;4.77;;;2.53;;
12474;SDS011;6302;42.624;23.334;2023-08-31T02:09:18;3.07;;;2.20;;
12474;SDS011;6302;42.624;23.334;2023-08-31T02:11:46;5.47;;;2.30;;
12474;SDS011;6302;42.624;23.334;2023-08-31T02:14:15;3.23;;;2.13;;
12474;SDS011;6302;42.624;23.334;2023-08-31T02:16:42;2.93;;;1.80;;
12474;SDS011;6302;42.624;23.334;2023-08-31T02:19:08;4.57;;;1.93;;
12474;SDS011;6302;42.624;23.334;2023-08-31T02:21:35;5.17;;;2.10;;
12474;SDS011;6302;42.624;23.334;2023-08-31T02:24:02;3.67;;;2.10;;
12474;SDS011;6302;42.624;23.334;2023-08-31T02:26:29;7.77;;;2.70;;
12474;SDS011;6302;42.624;23.334;2023-08-31T02:28:56;5.37;;;1.97;;
12474;SDS011;6302;42.624;23.334;2023-08-31T02:31:24;4.50;;;2.57;;
12474;SDS011;6302;42.624;23.334;2023-08-31T02:33:51;4.43;;;2.27;;
12474;SDS011;6302;42.624;23.334;2023-08-31T02:36:18;5.20;;;2.30;;
12474;SDS011;6302;42.624;23.334;2023-08-31T02:38:45;3.13;;;2.40;;
12474;SDS011;6302;42.624;23.334;2023-08-31T02:41:15;2.53;;;2.10;;
12474;SDS011;6302;42.624;23.334;2023-08-31T02:43:41;3.03;;;2.20;;
12474;SDS011;6302;42.624;23.334;2023-08-31T02:46:08;5.10;;;2.50;;
12474;SDS011;6302;42.624;23.334;2023-08-31T02:48:37;3.07;;;2.20;;
12474;SDS011;6302;42.624;23.334;2023-08-31T02:51:04;2.93;;;2.10;;
12474;SDS011;6302;42.624;23.334;2023-08-31T02:53:31;3.27;;;2.47;;
12474;SDS011;6302;42.624;23.334;2023-08-31T02:55:58;3.70;;;2.37;;
12474;SDS011;6302;42.624;23.334;2023-08-31T02:58:24;4.60;;;2.20;;
12474;SDS011;6302;42.624;23.334;2023-08-31T03:00:51;7.80;;;2.67;;
12474;SDS011;6302;42.624;23.334;2023-08-31T03:03:18;3.90;;;2.43;;
12474;SDS011;6302;42.624;23.334;2023-08-31T03:05:46;3.03;;;2.13;;
12474;SDS011;6302;42.624;23.334;2023-08-31T03:08:13;5.73;;;2.73;;
12474;SDS011;6302;42.624;23.334;2023-08-31T03:10:40;3.93;;;1.90;;
12474;SDS011;6302;42.624;23.334;2023-08-31T03:13:07;4.17;;;2.40;;
12474;SDS011;6302;42.624;23.334;2023-08-31T03:15:34;4.17;;;2.50;;
12474;SDS011;6302;42.624;23.334;2023-08-31T03:18:00;3.83;;;2.47;;
12474;SDS011;6302;42.624;23.334;2023-08-31T03:20:27;4.13;;;2.57;;
12474;SDS011;6302;42.624;23.334;2023-08-31T03:22:56;4.10;;;2.30;;
12474;SDS011;6302;42.624;23.334;2023-08-31T03:25:22;3.47;;;2.67;;
12474;SDS011;6302;42.624;23.334;2023-08-31T03:27:50;4.67;;;2.10;;
12474;SDS011;6302;42.624;23.334;2023-08-31T03:30:17;5.40;;;2.53;;
12474;SDS011;6302;42.624;23.334;2023-08-31T03:32:43;4.30;;;2.00;;
12474;SDS011;6302;42.624;23.334;2023-08-31T03:35:10;4.43;;;2.50;;
12474;SDS011;6302;42.624;23.334;2023-08-31T03:37:37;3.57;;;2.00;;
12474;SDS011;6302;42.624;23.334;2023-08-31T03:40:06;7.97;;;2.20;;
12474;SDS011;6302;42.624;23.334;2023-08-31T03:42:34;4.30;;;2.17;;
12474;SDS011;6302;42.624;23.334;2023-08-31T03:45:01;3.93;;;2.00;;
12474;SDS011;6302;42.624;23.334;2023-08-31T03:47:28;6.07;;;2.23;;
12474;SDS011;6302;42.624;23.334;2023-08-31T03:49:55;5.53;;;2.40;;
12474;SDS011;6302;42.624;23.334;2023-08-31T03:52:22;4.40;;;2.67;;
12474;SDS011;6302;42.624;23.334;2023-08-31T03:54:49;3.97;;;2.57;;
12474;SDS011;6302;42.624;23.334;2023-08-31T03:57:19;4.63;;;2.40;;
12474;SDS011;6302;42.624;23.334;2023-08-31T03:59:45;4.60;;;2.30;;
12474;SDS011;6302;42.624;23.334;2023-08-31T04:02:12;4.50;;;2.20;;
12474;SDS011;6302;42.624;23.334;2023-08-31T04:04:39;5.73;;;2.23;;
12474;SDS011;6302;42.624;23.334;2023-08-31T04:07:06;3.50;;;2.13;;
12474;SDS011;6302;42.624;23.334;2023-08-31T04:09:33;3.63;;;1.80;;
12474;SDS011;6302;42.624;23.334;2023-08-31T04:12:00;5.27;;;2.70;;
12474;SDS011;6302;42.624;23.334;2023-08-31T04:14:28;3.97;;;2.50;;
12474;SDS011;6302;42.624;23.334;2023-08-31T04:16:55;3.90;;;2.23;;
12474;SDS011;6302;42.624;23.334;2023-08-31T04:19:22;2.60;;;2.20;;
12474;SDS011;6302;42.624;23.334;2023-08-31T04:21:49;7.23;;;2.80;;
12474;SDS011;6302;42.624;23.334;2023-08-31T04:24:15;4.17;;;2.23;;
12474;SDS011;6302;42.624;23.334;2023-08-31T04:26:42;6.30;;;2.40;;
12474;SDS011;6302;42.624;23.334;2023-08-31T04:29:10;4.20;;;2.73;;
12474;SDS011;6302;42.624;23.334;2023-08-31T04:31:38;5.23;;;2.57;;
12474;SDS011;6302;42.624;23.334;2023-08-31T04:34:05;4.23;;;2.17;;
12474;SDS011;6302;42.624;23.334;2023-08-31T04:36:32;4.40;;;2.53;;
12474;SDS011;6302;42.624;23.334;2023-08-31T04:38:59;3.40;;;2.50;;
12474;SDS011;6302;42.624;23.334;2023-08-31T04:41:26;3.43;;;2.47;;
12474;SDS011;6302;42.624;23.334;2023-08-31T04:43:52;4.83;;;2.80;;
12474;SDS011;6302;42.624;23.334;2023-08-31T04:46:19;5.60;;;2.77;;
12474;SDS011;6302;42.624;23.334;2023-08-31T04:48:47;5.93;;;2.67;;
12474;SDS011;6302;42.624;23.334;2023-08-31T04:51:26;4.67;;;2.80;;
12474;SDS011;6302;42.624;23.334;2023-08-31T04:53:54;7.00;;;2.43;;
12474;SDS011;6302;42.624;23.334;2023-08-31T04:56:21;4.30;;;2.60;;
12474;SDS011;6302;42.624;23.334;2023-08-31T04:58:48;4.93;;;2.33;;
12474;SDS011;6302;42.624;23.334;2023-08-31T05:01:14;3.43;;;2.60;;
12474;SDS011;6302;42.624;23.334;2023-08-31T05:03:41;3.30;;;2.50;;
12474;SDS011;6302;42.624;23.334;2023-08-31T05:06:09;5.30;;;2.30;;
12474;SDS011;6302;42.624;23.334;2023-08-31T05:08:36;9.47;;;2.63;;
12474;SDS011;6302;42.624;23.334;2023-08-31T05:11:03;5.50;;;2.33;;
12474;SDS011;6302;42.624;23.334;2023-08-31T05:13:30;3.23;;;2.27;;
12474;SDS011;6302;42.624;23.334;2023-08-31T05:15:58;4.80;;;2.50;;
12474;SDS011;6302;42.624;23.334;2023-08-31T05:18:25;2.70;;;2.13;;
12474;SDS011;6302;42.624;23.334;2023-08-31T05:20:51;5.00;;;2.20;;
12474;SDS011;6302;42.624;23.334;2023-08-31T05:23:20;4.67;;;2.20;;
12474;SDS011;6302;42.624;23.334;2023-08-31T05:25:46;2.83;;;2.17;;
12474;SDS011;6302;42.624;23.334;2023-08-31T05:28:14;3.50;;;1.93;;
12474;SDS011;6302;42.624;23.334;2023-08-31T05:30:49;2.90;;;1.87;;
12474;SDS011;6302;42.624;23.334;2023-08-31T05:33:16;2.43;;;1.70;;
12474;SDS011;6302;42.624;23.334;2023-08-31T05:35:43;3.33;;;1.73;;
12474;SDS011;6302;42.624;23.334;2023-08-31T05:38:10;3.20;;;1.90;;
12474;SDS011;6302;42.624;23.334;2023-08-31T05:40:38;4.77;;;2.27;;
12474;SDS011;6302;42.624;23.334;2023-08-31T05:43:10;2.50;;;2.00;;
12474;SDS011;6302;42.624;23.334;2023-08-31T05:45:37;4.20;;;2.20;;
12474;SDS011;6302;42.624;23.334;2023-08-31T05:48:04;4.10;;;1.80;;
12474;SDS011;6302;42.624;23.334;2023-08-31T05:50:31;5.47;;;2.10;;
12474;SDS011;6302;42.624;23.334;2023-08-31T05:52:58;3.90;;;2.03;;
12474;SDS011;6302;42.624;23.334;2023-08-31T05:55:25;4.60;;;1.90;;
12474;SDS011;6302;42.624;23.334;2023-08-31T05:57:53;2.87;;;1.90;;
12474;SDS011;6302;42.624;23.334;2023-08-31T06:00:20;2.73;;;1.90;;
12474;SDS011;6302;42.624;23.334;2023-08-31T06:02:46;4.37;;;2.00;;
12474;SDS011;6302;42.624;23.334;2023-08-31T06:05:13;4.90;;;1.87;;
12474;SDS011;6302;42.624;23.334;2023-08-31T06:07:41;8.97;;;2.33;;
12474;SDS011;6302;42.624;23.334;2023-08-31T06:10:08;5.17;;;2.47;;
12474;SDS011;6302;42.624;23.334;2023-08-31T06:12:35;4.97;;;2.40;;
12474;SDS011;6302;42.624;23.334;2023-08-31T06:15:04;5.90;;;2.10;;
12474;SDS011;6302;42.624;23.334;2023-08-31T06:17:32;6.00;;;2.57;;
12474;SDS011;6302;42.624;23.334;2023-08-31T06:20:00;4.80;;;2.37;;
12474;SDS011;6302;42.624;23.334;2023-08-31T06:22:27;4.33;;;2.90;;
12474;SDS011;6302;42.624;23.334;2023-08-31T06:24:54;5.33;;;2.33;;
12474;SDS011;6302;42.624;23.334;2023-08-31T06:27:21;7.70;;;2.10;;
12474;SDS011;6302;42.624;23.334;2023-08-31T06:29:48;3.93;;;2.40;;
12474;SDS011;6302;42.624;23.334;2023-08-31T06:32:17;4.10;;;2.50;;
12474;SDS011;6302;42.624;23.334;2023-08-31T06:34:44;8.27;;;2.93;;
12474;SDS011;6302;42.624;23.334;2023-08-31T06:37:11;5.70;;;2.47;;
12474;SDS011;6302;42.624;23.334;2023-08-31T06:39:38;7.97;;;2.77;;
12474;SDS011;6302;42.624;23.334;2023-08-31T06:42:06;7.73;;;2.53;;
12474;SDS011;6302;42.624;23.334;2023-08-31T06:44:32;5.73;;;2.27;;
12474;SDS011;6302;42.624;23.334;2023-08-31T06:46:59;5.50;;;2.30;;
12474;SDS011;6302;42.624;23.334;2023-08-31T06:49:27;5.20;;;2.70;;
12474;SDS011;6302;42.624;23.334;2023-08-31T06:51:55;5.83;;;1.90;;
12474;SDS011;6302;42.624;23.334;2023-08-31T06:54:22;5.23;;;2.13;;
12474;SDS011;6302;42.624;23.334;2023-08-31T06:56:49;6.67;;;2.20;;
12474;SDS011;6302;42.624;23.334;2023-08-31T06:59:15;5.60;;;2.63;;
12474;SDS011;6302;42.624;23.334;2023-08-31T07:01:42;3.87;;;2.20;;
12474;SDS011;6302;42.624;23.334;2023-08-31T07:04:09;5.30;;;2.30;;
12474;SDS011;6302;42.624;23.334;2023-08-31T07:06:37;4.77;;;2.60;;
12474;SDS011;6302;42.624;23.334;2023-08-31T07:09:04;3.37;;;2.47;;
12474;SDS011;6302;42.624;23.334;2023-08-31T07:11:33;7.87;;;2.60;;
12474;SDS011;6302;42.624;23.334;2023-08-31T07:14:00;9.50;;;3.03;;
12474;SDS011;6302;42.624;23.334;2023-08-31T07:16:27;7.10;;;2.83;;
12474;SDS011;6302;42.624;23.334;2023-08-31T07:18:54;13.43;;;3.20;;
12474;SDS011;6302;42.624;23.334;2023-08-31T07:21:20;7.70;;;2.53;;
12474;SDS011;6302;42.624;23.334;2023-08-31T07:23:49;6.40;;;2.50;;
12474;SDS011;6302;42.624;23.334;2023-08-31T07:26:15;8.47;;;3.10;;
12474;SDS011;6302;42.624;23.334;2023-08-31T07:28:42;8.47;;;2.50;;
12474;SDS011;6302;42.624;23.334;2023-08-31T07:31:09;5.27;;;2.90;;
12474;SDS011;6302;42.624;23.334;2023-08-31T07:33:36;7.57;;;3.00;;
12474;SDS011;6302;42.624;23.334;2023-08-31T07:36:03;6.87;;;2.70;;
12474;SDS011;6302;42.624;23.334;2023-08-31T07:38:31;6.63;;;2.97;;
12474;SDS011;6302;42.624;23.334;2023-08-31T07:41:00;5.97;;;3.40;;
12474;SDS011;6302;42.624;23.334;2023-08-31T07:43:27;5.03;;;3.27;;
12474;SDS011;6302;42.624;23.334;2023-08-31T07:45:54;5.33;;;2.73;;
12474;SDS011;6302;42.624;23.334;2023-08-31T07:48:21;7.83;;;3.33;;
12474;SDS011;6302;42.624;23.334;2023-08-31T07:50:48;10.97;;;3.23;;
12474;SDS011;6302;42.624;23.334;2023-08-31T07:53:15;3.83;;;2.63;;
12474;SDS011;6302;42.624;23.334;2023-08-31T07:55:50;5.73;;;2.70;;
12474;SDS011;6302;42.624;23.334;2023-08-31T07:58:18;6.20;;;3.03;;
12474;SDS011;6302;42.624;23.334;2023-08-31T08:00:45;10.43;;;2.87;;
12474;SDS011;6302;42.624;23.334;2023-08-31T08:03:12;7.20;;;2.63;;
12474;SDS011;6302;42.624;23.334;2023-08-31T08:05:38;5.63;;;2.77;;
12474;SDS011;6302;42.624;23.334;2023-08-31T08:08:05;4.50;;;2.40;;
12474;SDS011;6302;42.624;23.334;2023-08-31T08:10:32;8.17;;;2.90;;
12474;SDS011;6302;42.624;23.334;2023-08-31T08:12:59;6.27;;;3.07;;
12474;SDS011;6302;42.624;23.334;2023-08-31T08:15:27;7.40;;;2.80;;
12474;SDS011;6302;42.624;23.334;2023-08-31T08:17:54;9.23;;;2.87;;
12474;SDS011;6302;42.624;23.334;2023-08-31T08:20:22;3.70;;;2.70;;
12474;SDS011;6302;42.624;23.334;2023-08-31T08:22:49;6.57;;;2.80;;
12474;SDS011;6302;42.624;23.334;2023-08-31T08:25:17;6.40;;;2.97;;
12474;SDS011;6302;42.624;23.334;2023-08-31T08:27:44;6.40;;;3.90;;
12474;SDS011;6302;42.624;23.334;2023-08-31T08:30:11;5.65;;;4.20;;
12474;SDS011;6302;42.624;23.334;2023-08-31T08:32:39;7.53;;;5.63;;
12474;SDS011;6302;42.624;23.334;2023-08-31T08:35:07;8.97;;;5.47;;
12474;SDS011;6302;42.624;23.334;2023-08-31T08:37:34;9.23;;;5.03;;
12474;SDS011;6302;42.624;23.334;2023-08-31T08:40:01;6.60;;;5.20;;
12474;SDS011;6302;42.624;23.334;2023-08-31T08:42:29;5.32;;;4.25;;
12474;SDS011;6302;42.624;23.334;2023-08-31T08:44:57;6.83;;;4.53;;
12474;SDS011;6302;42.624;23.334;2023-08-31T08:47:25;6.90;;;4.63;;
12474;SDS011;6302;42.624;23.334;2023-08-31T08:49:54;10.70;;;5.37;;
12474;SDS011;6302;42.624;23.334;2023-08-31T08:52:22;7.73;;;5.43;;
12474;SDS011;6302;42.624;23.334;2023-08-31T08:54:49;6.83;;;5.07;;
12474;SDS011;6302;42.624;23.334;2023-08-31T08:57:17;6.40;;;4.70;;
12474;SDS011;6302;42.624;23.334;2023-08-31T08:59:43;6.63;;;4.87;;
12474;SDS011;6302;42.624;23.334;2023-08-31T09:02:10;5.47;;;4.43;;
12474;SDS011;6302;42.624;23.334;2023-08-31T09:04:37;7.30;;;4.20;;
12474;SDS011;6302;42.624;23.334;2023-08-31T09:07:06;6.88;;;4.18;;
12474;SDS011;6302;42.624;23.334;2023-08-31T09:09:34;6.73;;;4.80;;
12474;SDS011;6302;42.624;23.334;2023-08-31T09:12:15;9.03;;;4.63;;
12474;SDS011;6302;42.624;23.334;2023-08-31T09:14:42;4.97;;;4.45;;
12474;SDS011;6302;42.624;23.334;2023-08-31T09:17:08;8.17;;;4.07;;
12474;SDS011;6302;42.624;23.334;2023-08-31T09:19:36;5.40;;;3.97;;
12474;SDS011;6302;42.624;23.334;2023-08-31T09:22:02;4.70;;;4.17;;
12474;SDS011;6302;42.624;23.334;2023-08-31T09:24:40;6.30;;;4.15;;
12474;SDS011;6302;42.624;23.334;2023-08-31T09:27:10;7.03;;;4.20;;
12474;SDS011;6302;42.624;23.334;2023-08-31T09:29:37;5.03;;;3.97;;
12474;SDS011;6302;42.624;23.334;2023-08-31T09:32:05;4.32;;;3.85;;
12474;SDS011;6302;42.624;23.334;2023-08-31T09:34:35;5.47;;;4.03;;
12474;SDS011;6302;42.624;23.334;2023-08-31T09:37:05;5.60;;;3.97;;
12474;SDS011;6302;42.624;23.334;2023-08-31T09:39:37;4.55;;;3.80;;
12474;SDS011;6302;42.624;23.334;2023-08-31T09:42:05;6.33;;;3.80;;
12474;SDS011;6302;42.624;23.334;2023-08-31T09:44:32;5.57;;;3.53;;
12474;SDS011;6302;42.624;23.334;2023-08-31T09:46:58;5.23;;;3.93;;
12474;SDS011;6302;42.624;23.334;2023-08-31T09:49:26;7.00;;;3.60;;
12474;SDS011;6302;42.624;23.334;2023-08-31T09:51:54;4.90;;;3.53;;
12474;SDS011;6302;42.624;23.334;2023-08-31T09:54:24;4.82;;;3.90;;
12474;SDS011;6302;42.624;23.334;2023-08-31T09:56:53;4.13;;;3.50;;
12474;SDS011;6302;42.624;23.334;2023-08-31T09:59:24;6.47;;;3.67;;
12474;SDS011;6302;42.624;23.334;2023-08-31T10:01:54;4.97;;;4.00;;
12474;SDS011;6302;42.624;23.334;2023-08-31T10:04:22;4.65;;;4.00;;
12474;SDS011;6302;42.624;23.334;2023-08-31T10:06:49;6.47;;;3.60;;
12474;SDS011;6302;42.624;23.334;2023-08-31T10:09:17;4.43;;;3.50;;
12474;SDS011;6302;42.624;23.334;2023-08-31T10:11:45;4.65;;;3.67;;
12474;SDS011;6302;42.624;23.334;2023-08-31T10:14:13;5.53;;;4.20;;
12474;SDS011;6302;42.624;23.334;2023-08-31T10:16:43;4.50;;;3.80;;
12474;SDS011;6302;42.624;23.334;2023-08-31T10:19:11;5.97;;;4.35;;
12474;SDS011;6302;42.624;23.334;2023-08-31T10:21:37;4.95;;;4.10;;
12474;SDS011;6302;42.624;23.334;2023-08-31T10:24:09;6.20;;;4.32;;
12474;SDS011;6302;42.624;23.334;2023-08-31T10:26:36;4.97;;;4.00;;
12474;SDS011;6302;42.624;23.334;2023-08-31T10:29:02;6.55;;;3.92;;
12474;SDS011;6302;42.624;23.334;2023-08-31T10:31:29;6.68;;;4.40;;
12474;SDS011;6302;42.624;23.334;2023-08-31T10:33:59;5.13;;;3.90;;
12474;SDS011;6302;42.624;23.334;2023-08-31T10:36:38;4.87;;;4.30;;
12474;SDS011;6302;42.624;23.334;2023-08-31T10:39:13;4.45;;;3.97;;
12474;SDS011;6302;42.624;23.334;2023-08-31T10:41:41;7.22;;;4.43;;
12474;SDS011;6302;42.624;23.334;2023-08-31T10:44:17;4.65;;;3.95;;
12474;SDS011;6302;42.624;23.334;2023-08-31T10:46:45;5.50;;;4.18;;
12474;SDS011;6302;42.624;23.334;2023-08-31T10:49:14;6.28;;;4.30;;
12474;SDS011;6302;42.624;23.334;2023-08-31T10:51:43;6.47;;;4.57;;
12474;SDS011;6302;42.624;23.334;2023-08-31T10:54:11;6.50;;;3.97;;
12474;SDS011;6302;42.624;23.334;2023-08-31T11:02:27;6.05;;;4.57;;
12474;SDS011;6302;42.624;23.334;2023-08-31T11:05:01;4.95;;;3.95;;
12474;SDS011;6302;42.624;23.334;2023-08-31T11:07:32;4.18;;;3.63;;
12474;SDS011;6302;42.624;23.334;2023-08-31T11:10:07;6.45;;;4.03;;
12474;SDS011;6302;42.624;23.334;2023-08-31T11:12:35;4.10;;;3.70;;
12474;SDS011;6302;42.624;23.334;2023-08-31T11:15:03;4.68;;;3.50;;
12474;SDS011;6302;42.624;23.334;2023-08-31T11:17:30;5.70;;;3.30;;
12474;SDS011;6302;42.624;23.334;2023-08-31T11:19:58;4.05;;;3.33;;
12474;SDS011;6302;42.624;23.334;2023-08-31T11:22:33;4.88;;;3.80;;
12474;SDS011;6302;42.624;23.334;2023-08-31T11:25:00;4.55;;;3.83;;
12474;SDS011;6302;42.624;23.334;2023-08-31T11:27:27;4.07;;;3.35;;
12474;SDS011;6302;42.624;23.334;2023-08-31T11:29:53;4.72;;;3.85;;
12474;SDS011;6302;42.624;23.334;2023-08-31T11:32:22;6.43;;;3.92;;
12474;SDS011;6302;42.624;23.334;2023-08-31T11:34:49;5.85;;;3.72;;
12474;SDS011;6302;42.624;23.334;2023-08-31T11:37:18;4.75;;;3.40;;
12474;SDS011;6302;42.624;23.334;2023-08-31T11:39:48;3.88;;;3.35;;
12474;SDS011;6302;42.624;23.334;2023-08-31T11:42:16;6.25;;;4.30;;
12474;SDS011;6302;42.624;23.334;2023-08-31T11:44:44;3.83;;;3.33;;
12474;SDS011;6302;42.624;23.334;2023-08-31T11:47:12;4.30;;;3.65;;
12474;SDS011;6302;42.624;23.334;2023-08-31T11:49:39;4.70;;;3.60;;
12474;SDS011;6302;42.624;23.334;2023-08-31T11:52:08;3.40;;;2.88;;
12474;SDS011;6302;42.624;23.334;2023-08-31T11:54:38;4.75;;;2.80;;
12474;SDS011;6302;42.624;23.334;2023-08-31T11:57:06;5.68;;;3.40;;
12474;SDS011;6302;42.624;23.334;2023-08-31T11:59:34;4.88;;;3.58;;
12474;SDS011;6302;42.624;23.334;2023-08-31T12:02:01;3.78;;;2.85;;
12474;SDS011;6302;42.624;23.334;2023-08-31T12:04:28;5.97;;;3.13;;
12474;SDS011;6302;42.624;23.334;2023-08-31T12:07:00;6.15;;;3.53;;
12474;SDS011;6302;42.624;23.334;2023-08-31T12:09:28;5.40;;;3.17;;
12474;SDS011;6302;42.624;23.334;2023-08-31T12:11:57;4.70;;;3.33;;
12474;SDS011;6302;42.624;23.334;2023-08-31T12:14:26;6.40;;;3.83;;
12474;SDS011;6302;42.624;23.334;2023-08-31T12:16:59;4.55;;;3.20;;
12474;SDS011;6302;42.624;23.334;2023-08-31T12:19:28;4.30;;;3.50;;
12474;SDS011;6302;42.624;23.334;2023-08-31T12:21:55;5.60;;;3.30;;
12474;SDS011;6302;42.624;23.334;2023-08-31T12:24:23;4.85;;;3.15;;
12474;SDS011;6302;42.624;23.334;2023-08-31T12:26:50;5.30;;;3.27;;
12474;SDS011;6302;42.624;23.334;2023-08-31T12:29:20;5.55;;;3.92;;
12474;SDS011;6302;42.624;23.334;2023-08-31T12:31:47;4.73;;;2.97;;
12474;SDS011;6302;42.624;23.334;2023-08-31T12:34:14;8.43;;;4.05;;
12474;SDS011;6302;42.624;23.334;2023-08-31T12:36:41;5.80;;;3.17;;
12474;SDS011;6302;42.624;23.334;2023-08-31T12:39:08;5.20;;;3.00;;
12474;SDS011;6302;42.624;23.334;2023-08-31T12:41:37;7.50;;;3.43;;
12474;SDS011;6302;42.624;23.334;2023-08-31T12:44:04;5.05;;;3.10;;
12474;SDS011;6302;42.624;23.334;2023-08-31T12:46:32;4.70;;;2.60;;
12474;SDS011;6302;42.624;23.334;2023-08-31T12:48:59;4.95;;;3.33;;
12474;SDS011;6302;42.624;23.334;2023-08-31T12:51:28;7.57;;;3.50;;
12474;SDS011;6302;42.624;23.334;2023-08-31T12:53:55;6.80;;;3.50;;
12474;SDS011;6302;42.624;23.334;2023-08-31T12:56:22;7.18;;;3.58;;
12474;SDS011;6302;42.624;23.334;2023-08-31T12:58:49;6.78;;;3.42;;
12474;SDS011;6302;42.624;23.334;2023-08-31T13:01:17;6.15;;;3.15;;
12474;SDS011;6302;42.624;23.334;2023-08-31T13:03:45;4.63;;;3.00;;
12474;SDS011;6302;42.624;23.334;2023-08-31T13:06:13;3.88;;;3.13;;
12474;SDS011;6302;42.624;23.334;2023-08-31T13:08:41;4.35;;;2.72;;
12474;SDS011;6302;42.624;23.334;2023-08-31T13:11:08;6.83;;;3.07;;
12474;SDS011;6302;42.624;23.334;2023-08-31T13:13:35;3.47;;;2.75;;
12474;SDS011;6302;42.624;23.334;2023-08-31T13:16:02;5.03;;;3.30;;
12474;SDS011;6302;42.624;23.334;2023-08-31T13:18:29;4.28;;;2.75;;
12474;SDS011;6302;42.624;23.334;2023-08-31T13:20:58;6.50;;;3.00;;
12474;SDS011;6302;42.624;23.334;2023-08-31T13:23:24;4.40;;;2.65;;
12474;SDS011;6302;42.624;23.334;2023-08-31T13:25:51;4.87;;;2.77;;
12474;SDS011;6302;42.624;23.334;2023-08-31T13:28:18;5.93;;;3.13;;
12474;SDS011;6302;42.624;23.334;2023-08-31T13:30:45;3.93;;;2.50;;
12474;SDS011;6302;42.624;23.334;2023-08-31T13:33:12;5.40;;;2.92;;
12474;SDS011;6302;42.624;23.334;2023-08-31T13:35:39;3.73;;;2.80;;
12474;SDS011;6302;42.624;23.334;2023-08-31T13:38:07;3.53;;;2.80;;
12474;SDS011;6302;42.624;23.334;2023-08-31T13:40:34;4.70;;;2.70;;
12474;SDS011;6302;42.624;23.334;2023-08-31T13:43:02;4.00;;;2.70;;
12474;SDS011;6302;42.624;23.334;2023-08-31T13:45:29;5.67;;;3.27;;
12474;SDS011;6302;42.624;23.334;2023-08-31T13:47:56;3.58;;;2.80;;
12474;SDS011;6302;42.624;23.334;2023-08-31T13:50:25;6.97;;;3.50;;
12474;SDS011;6302;42.624;23.334;2023-08-31T13:52:52;3.20;;;2.60;;
12474;SDS011;6302;42.624;23.334;2023-08-31T13:55:20;4.05;;;2.90;;
12474;SDS011;6302;42.624;23.334;2023-08-31T13:57:48;6.20;;;2.85;;
12474;SDS011;6302;42.624;23.334;2023-08-31T14:00:16;4.70;;;3.00;;
12474;SDS011;6302;42.624;23.334;2023-08-31T14:02:43;3.67;;;3.03;;
12474;SDS011;6302;42.624;23.334;2023-08-31T14:05:10;6.90;;;3.58;;
12474;SDS011;6302;42.624;23.334;2023-08-31T14:07:37;3.58;;;2.65;;
12474;SDS011;6302;42.624;23.334;2023-08-31T14:10:04;5.05;;;3.15;;
12474;SDS011;6302;42.624;23.334;2023-08-31T14:12:33;3.33;;;2.90;;
12474;SDS011;6302;42.624;23.334;2023-08-31T14:15:00;3.80;;;2.70;;
12474;SDS011;6302;42.624;23.334;2023-08-31T14:17:29;4.70;;;2.60;;
12474;SDS011;6302;42.624;23.334;2023-08-31T14:19:58;3.15;;;2.45;;
12474;SDS011;6302;42.624;23.334;2023-08-31T14:22:25;3.80;;;2.47;;
12474;SDS011;6302;42.624;23.334;2023-08-31T14:24:51;3.00;;;2.70;;
12474;SDS011;6302;42.624;23.334;2023-08-31T14:27:18;4.75;;;2.53;;
12474;SDS011;6302;42.624;23.334;2023-08-31T14:29:46;3.30;;;2.50;;
12474;SDS011;6302;42.624;23.334;2023-08-31T14:32:13;5.50;;;2.97;;
12474;SDS011;6302;42.624;23.334;2023-08-31T14:34:41;4.13;;;2.53;;
12474;SDS011;6302;42.624;23.334;2023-08-31T14:37:07;2.90;;;2.50;;
12474;SDS011;6302;42.624;23.334;2023-08-31T14:39:34;3.00;;;2.70;;
12474;SDS011;6302;42.624;23.334;2023-08-31T14:42:01;5.00;;;2.70;;
12474;SDS011;6302;42.624;23.334;2023-08-31T14:44:28;3.97;;;2.83;;
12474;SDS011;6302;42.624;23.334;2023-08-31T14:46:56;5.63;;;2.73;;
12474;SDS011;6302;42.624;23.334;2023-08-31T14:49:23;4.23;;;2.50;;
12474;SDS011;6302;42.624;23.334;2023-08-31T14:51:51;4.47;;;3.00;;
12474;SDS011;6302;42.624;23.334;2023-08-31T14:54:17;6.60;;;3.00;;
12474;SDS011;6302;42.624;23.334;2023-08-31T14:56:44;6.13;;;2.55;;
12474;SDS011;6302;42.624;23.334;2023-08-31T14:59:11;4.67;;;2.67;;